sensor_id;sensor_type;location;lat;lon;timestamp;P1;durP1;ratioP1;P2;durP2;ratioP2
47367;SDS011;34646;47.964;7.982;2024-03-08T00:03:47;12.30;;;7.07;;
47367;SDS011;34646;47.964;7.982;2024-03-08T00:09:48;14.87;;;7.80;;
47367;SDS011;34646;47.964;7.982;2024-03-08T00:15:49;12.80;;;7.23;;
47367;SDS011;34646;47.964;7.982;2024-03-08T00:21:51;14.68;;;7.25;;
47367;SDS011;34646;47.964;7.982;2024-03-08T00:27:52;12.57;;;6.95;;
47367;SDS011;34646;47.964;7.982;2024-03-08T00:33:56;10.68;;;6.72;;
47367;SDS011;34646;47.964;7.982;2024-03-08T00:39:57;10.63;;;6.63;;
47367;SDS011;34646;47.964;7.982;2024-03-08T00:45:58;12.05;;;7.32;;
47367;SDS011;34646;47.964;7.982;2024-03-08T00:51:59;10.48;;;6.93;;
47367;SDS011;34646;47.964;7.982;2024-03-08T00:58:00;8.90;;;6.10;;
47367;SDS011;34646;47.964;7.982;2024-03-08T01:04:01;12.23;;;7.05;;
47367;SDS011;34646;47.964;7.982;2024-03-08T01:10:03;11.05;;;7.10;;
47367;SDS011;34646;47.964;7.982;2024-03-08T01:16:04;9.00;;;6.18;;
47367;SDS011;34646;47.964;7.982;2024-03-08T01:22:05;11.60;;;6.70;;
47367;SDS011;34646;47.964;7.982;2024-03-08T01:28:07;11.73;;;6.68;;
47367;SDS011;34646;47.964;7.982;2024-03-08T01:34:09;10.57;;;6.30;;
47367;SDS011;34646;47.964;7.982;2024-03-08T01:40:11;11.95;;;6.63;;
47367;SDS011;34646;47.964;7.982;2024-03-08T01:46:12;10.87;;;6.27;;
47367;SDS011;34646;47.964;7.982;2024-03-08T01:52:16;11.70;;;6.93;;
47367;SDS011;34646;47.964;7.982;2024-03-08T01:58:19;10.82;;;7.07;;
47367;SDS011;34646;47.964;7.982;2024-03-08T02:04:22;8.88;;;5.72;;
47367;SDS011;34646;47.964;7.982;2024-03-08T02:10:24;11.23;;;6.05;;
47367;SDS011;34646;47.964;7.982;2024-03-08T02:16:25;10.90;;;6.20;;
47367;SDS011;34646;47.964;7.982;2024-03-08T02:22:27;10.52;;;6.13;;
47367;SDS011;34646;47.964;7.982;2024-03-08T02:28:29;8.65;;;6.18;;
47367;SDS011;34646;47.964;7.982;2024-03-08T02:34:31;8.80;;;6.30;;
47367;SDS011;34646;47.964;7.982;2024-03-08T02:46:32;9.07;;;5.65;;
47367;SDS011;34646;47.964;7.982;2024-03-08T02:52:34;8.32;;;5.57;;
47367;SDS011;34646;47.964;7.982;2024-03-08T02:58:35;7.43;;;5.63;;
47367;SDS011;34646;47.964;7.982;2024-03-08T03:04:39;8.60;;;5.50;;
47367;SDS011;34646;47.964;7.982;2024-03-08T03:10:40;8.45;;;5.78;;
47367;SDS011;34646;47.964;7.982;2024-03-08T03:16:41;7.53;;;5.47;;
47367;SDS011;34646;47.964;7.982;2024-03-08T03:22:44;8.98;;;5.53;;
47367;SDS011;34646;47.964;7.982;2024-03-08T03:28:47;9.32;;;5.95;;
47367;SDS011;34646;47.964;7.982;2024-03-08T03:34:48;8.20;;;5.80;;
47367;SDS011;34646;47.964;7.982;2024-03-08T03:40:52;9.50;;;5.97;;
47367;SDS011;34646;47.964;7.982;2024-03-08T03:46:57;9.90;;;5.53;;
47367;SDS011;34646;47.964;7.982;2024-03-08T03:52:58;9.70;;;5.80;;
47367;SDS011;34646;47.964;7.982;2024-03-08T03:58:59;9.40;;;5.33;;
47367;SDS011;34646;47.964;7.982;2024-03-08T04:05:00;9.30;;;5.60;;
47367;SDS011;34646;47.964;7.982;2024-03-08T04:11:01;7.60;;;5.38;;
47367;SDS011;34646;47.964;7.982;2024-03-08T04:17:02;8.32;;;5.50;;
47367;SDS011;34646;47.964;7.982;2024-03-08T04:23:04;8.32;;;6.25;;
47367;SDS011;34646;47.964;7.982;2024-03-08T04:29:04;8.77;;;5.83;;
47367;SDS011;34646;47.964;7.982;2024-03-08T04:35:05;9.23;;;5.60;;
47367;SDS011;34646;47.964;7.982;2024-03-08T04:41:07;8.18;;;5.18;;
47367;SDS011;34646;47.964;7.982;2024-03-08T04:47:08;9.27;;;5.18;;
47367;SDS011;34646;47.964;7.982;2024-03-08T04:53:10;8.80;;;5.47;;
47367;SDS011;34646;47.964;7.982;2024-03-08T04:59:11;8.27;;;5.20;;
47367;SDS011;34646;47.964;7.982;2024-03-08T05:05:12;7.00;;;5.32;;
47367;SDS011;34646;47.964;7.982;2024-03-08T05:11:13;8.25;;;5.45;;
47367;SDS011;34646;47.964;7.982;2024-03-08T05:17:14;8.13;;;5.47;;
47367;SDS011;34646;47.964;7.982;2024-03-08T05:23:16;6.90;;;4.95;;
47367;SDS011;34646;47.964;7.982;2024-03-08T05:29:19;9.20;;;5.28;;
47367;SDS011;34646;47.964;7.982;2024-03-08T05:35:20;7.60;;;5.30;;
47367;SDS011;34646;47.964;7.982;2024-03-08T05:41:21;7.23;;;5.23;;
47367;SDS011;34646;47.964;7.982;2024-03-08T05:47:22;6.83;;;4.93;;
47367;SDS011;34646;47.964;7.982;2024-03-08T05:53:24;7.70;;;5.33;;
47367;SDS011;34646;47.964;7.982;2024-03-08T05:59:25;7.30;;;4.90;;
47367;SDS011;34646;47.964;7.982;2024-03-08T06:05:26;7.03;;;4.80;;
47367;SDS011;34646;47.964;7.982;2024-03-08T06:11:27;6.03;;;4.77;;
47367;SDS011;34646;47.964;7.982;2024-03-08T06:17:28;8.02;;;5.35;;
47367;SDS011;34646;47.964;7.982;2024-03-08T06:23:29;6.60;;;4.40;;
47367;SDS011;34646;47.964;7.982;2024-03-08T06:29:30;7.85;;;5.20;;
47367;SDS011;34646;47.964;7.982;2024-03-08T06:35:32;9.23;;;5.22;;
47367;SDS011;34646;47.964;7.982;2024-03-08T06:41:33;6.78;;;4.85;;
47367;SDS011;34646;47.964;7.982;2024-03-08T06:47:34;10.03;;;5.10;;
47367;SDS011;34646;47.964;7.982;2024-03-08T06:53:36;52.73;;;24.70;;
47367;SDS011;34646;47.964;7.982;2024-03-08T06:59:37;43.33;;;23.40;;
47367;SDS011;34646;47.964;7.982;2024-03-08T07:05:38;41.00;;;20.67;;
47367;SDS011;34646;47.964;7.982;2024-03-08T07:11:40;37.65;;;19.67;;
47367;SDS011;34646;47.964;7.982;2024-03-08T07:23:44;33.20;;;18.10;;
47367;SDS011;34646;47.964;7.982;2024-03-08T07:30:00;34.83;;;17.25;;
47367;SDS011;34646;47.964;7.982;2024-03-08T07:36:02;28.73;;;16.77;;
47367;SDS011;34646;47.964;7.982;2024-03-08T07:42:03;28.17;;;16.85;;
47367;SDS011;34646;47.964;7.982;2024-03-08T07:48:06;31.63;;;16.30;;
47367;SDS011;34646;47.964;7.982;2024-03-08T07:54:09;32.38;;;15.38;;
47367;SDS011;34646;47.964;7.982;2024-03-08T08:00:10;24.37;;;14.23;;
47367;SDS011;34646;47.964;7.982;2024-03-08T08:06:17;25.05;;;14.40;;
47367;SDS011;34646;47.964;7.982;2024-03-08T08:12:19;21.60;;;13.45;;
47367;SDS011;34646;47.964;7.982;2024-03-08T08:18:21;22.23;;;12.52;;
47367;SDS011;34646;47.964;7.982;2024-03-08T08:24:25;23.45;;;13.00;;
47367;SDS011;34646;47.964;7.982;2024-03-08T08:36:28;22.65;;;12.15;;
47367;SDS011;34646;47.964;7.982;2024-03-08T08:42:29;22.02;;;12.55;;
47367;SDS011;34646;47.964;7.982;2024-03-08T08:48:31;21.33;;;11.55;;
47367;SDS011;34646;47.964;7.982;2024-03-08T08:54:32;19.57;;;11.87;;
47367;SDS011;34646;47.964;7.982;2024-03-08T09:00:33;19.07;;;11.10;;
47367;SDS011;34646;47.964;7.982;2024-03-08T09:06:34;18.25;;;11.32;;
47367;SDS011;34646;47.964;7.982;2024-03-08T09:12:36;18.45;;;10.52;;
47367;SDS011;34646;47.964;7.982;2024-03-08T09:18:37;18.00;;;10.40;;
47367;SDS011;34646;47.964;7.982;2024-03-08T09:24:37;15.63;;;9.97;;
47367;SDS011;34646;47.964;7.982;2024-03-08T09:30:39;16.40;;;10.17;;
47367;SDS011;34646;47.964;7.982;2024-03-08T09:36:40;17.13;;;10.45;;
47367;SDS011;34646;47.964;7.982;2024-03-08T09:42:45;18.33;;;9.80;;
47367;SDS011;34646;47.964;7.982;2024-03-08T09:48:48;14.68;;;9.23;;
47367;SDS011;34646;47.964;7.982;2024-03-08T09:54:49;16.35;;;8.90;;
47367;SDS011;34646;47.964;7.982;2024-03-08T10:00:50;13.93;;;8.85;;
47367;SDS011;34646;47.964;7.982;2024-03-08T10:06:51;15.63;;;9.17;;
47367;SDS011;34646;47.964;7.982;2024-03-08T10:12:52;13.98;;;8.55;;
47367;SDS011;34646;47.964;7.982;2024-03-08T10:18:53;14.60;;;8.77;;
47367;SDS011;34646;47.964;7.982;2024-03-08T10:24:54;14.93;;;8.47;;
47367;SDS011;34646;47.964;7.982;2024-03-08T10:30:55;12.47;;;8.20;;
47367;SDS011;34646;47.964;7.982;2024-03-08T10:36:57;13.23;;;7.88;;
47367;SDS011;34646;47.964;7.982;2024-03-08T10:43:04;12.85;;;7.90;;
47367;SDS011;34646;47.964;7.982;2024-03-08T10:49:06;11.57;;;7.63;;
47367;SDS011;34646;47.964;7.982;2024-03-08T10:55:12;12.55;;;8.15;;
47367;SDS011;34646;47.964;7.982;2024-03-08T11:01:14;10.65;;;7.00;;
47367;SDS011;34646;47.964;7.982;2024-03-08T11:07:16;13.25;;;7.20;;
47367;SDS011;34646;47.964;7.982;2024-03-08T11:13:39;11.90;;;7.30;;
47367;SDS011;34646;47.964;7.982;2024-03-08T11:19:45;11.17;;;6.77;;
47367;SDS011;34646;47.964;7.982;2024-03-08T11:25:47;11.00;;;6.70;;
47367;SDS011;34646;47.964;7.982;2024-03-08T11:31:52;13.82;;;7.18;;
47367;SDS011;34646;47.964;7.982;2024-03-08T11:38:03;26.70;;;6.73;;
47367;SDS011;34646;47.964;7.982;2024-03-08T11:44:05;11.67;;;6.27;;
47367;SDS011;34646;47.964;7.982;2024-03-08T11:50:06;16.88;;;6.25;;
47367;SDS011;34646;47.964;7.982;2024-03-08T11:56:12;13.00;;;6.07;;
47367;SDS011;34646;47.964;7.982;2024-03-08T12:02:14;12.90;;;6.25;;
47367;SDS011;34646;47.964;7.982;2024-03-08T12:08:15;12.48;;;6.03;;
47367;SDS011;34646;47.964;7.982;2024-03-08T12:14:17;14.57;;;5.90;;
47367;SDS011;34646;47.964;7.982;2024-03-08T12:20:19;9.43;;;5.38;;
47367;SDS011;34646;47.964;7.982;2024-03-08T12:26:24;9.70;;;5.20;;
47367;SDS011;34646;47.964;7.982;2024-03-08T12:32:26;11.13;;;5.10;;
47367;SDS011;34646;47.964;7.982;2024-03-08T12:38:30;12.85;;;5.10;;
47367;SDS011;34646;47.964;7.982;2024-03-08T12:44:31;16.00;;;5.20;;
47367;SDS011;34646;47.964;7.982;2024-03-08T12:50:32;8.15;;;4.63;;
47367;SDS011;34646;47.964;7.982;2024-03-08T12:56:34;10.02;;;4.68;;
47367;SDS011;34646;47.964;7.982;2024-03-08T13:02:37;16.38;;;4.88;;
47367;SDS011;34646;47.964;7.982;2024-03-08T13:08:38;8.97;;;4.40;;
47367;SDS011;34646;47.964;7.982;2024-03-08T13:14:40;10.20;;;5.15;;
47367;SDS011;34646;47.964;7.982;2024-03-08T13:20:41;9.27;;;4.45;;
47367;SDS011;34646;47.964;7.982;2024-03-08T13:26:44;9.50;;;5.20;;
47367;SDS011;34646;47.964;7.982;2024-03-08T13:32:45;7.63;;;4.00;;
47367;SDS011;34646;47.964;7.982;2024-03-08T13:38:47;19.35;;;5.15;;
47367;SDS011;34646;47.964;7.982;2024-03-08T13:44:48;13.48;;;4.20;;
47367;SDS011;34646;47.964;7.982;2024-03-08T13:50:50;12.95;;;4.05;;
47367;SDS011;34646;47.964;7.982;2024-03-08T13:56:51;16.60;;;4.75;;
47367;SDS011;34646;47.964;7.982;2024-03-08T14:02:54;13.52;;;4.47;;
47367;SDS011;34646;47.964;7.982;2024-03-08T14:08:55;15.57;;;5.15;;
47367;SDS011;34646;47.964;7.982;2024-03-08T14:14:57;11.77;;;4.97;;
47367;SDS011;34646;47.964;7.982;2024-03-08T14:21:02;14.10;;;5.30;;
47367;SDS011;34646;47.964;7.982;2024-03-08T14:27:04;12.38;;;5.00;;
47367;SDS011;34646;47.964;7.982;2024-03-08T14:33:08;15.40;;;5.13;;
47367;SDS011;34646;47.964;7.982;2024-03-08T14:39:09;13.13;;;4.90;;
47367;SDS011;34646;47.964;7.982;2024-03-08T14:45:10;9.02;;;4.72;;
47367;SDS011;34646;47.964;7.982;2024-03-08T14:51:11;8.53;;;4.67;;
47367;SDS011;34646;47.964;7.982;2024-03-08T14:57:14;15.05;;;5.10;;
47367;SDS011;34646;47.964;7.982;2024-03-08T15:03:15;11.20;;;5.05;;
47367;SDS011;34646;47.964;7.982;2024-03-08T15:09:16;11.45;;;5.65;;
47367;SDS011;34646;47.964;7.982;2024-03-08T15:21:18;9.27;;;4.70;;
47367;SDS011;34646;47.964;7.982;2024-03-08T15:27:19;13.40;;;4.80;;
47367;SDS011;34646;47.964;7.982;2024-03-08T15:33:21;12.77;;;5.35;;
47367;SDS011;34646;47.964;7.982;2024-03-08T15:39:27;11.05;;;4.57;;
47367;SDS011;34646;47.964;7.982;2024-03-08T15:45:28;9.85;;;4.47;;
47367;SDS011;34646;47.964;7.982;2024-03-08T15:51:30;9.02;;;4.65;;
47367;SDS011;34646;47.964;7.982;2024-03-08T15:57:32;7.57;;;4.07;;
47367;SDS011;34646;47.964;7.982;2024-03-08T16:03:33;8.83;;;4.47;;
47367;SDS011;34646;47.964;7.982;2024-03-08T16:09:34;10.32;;;4.95;;
47367;SDS011;34646;47.964;7.982;2024-03-08T16:15:35;10.07;;;4.70;;
47367;SDS011;34646;47.964;7.982;2024-03-08T16:21:38;8.77;;;4.78;;
47367;SDS011;34646;47.964;7.982;2024-03-08T16:27:40;9.88;;;4.13;;
47367;SDS011;34646;47.964;7.982;2024-03-08T16:33:41;6.63;;;4.13;;
47367;SDS011;34646;47.964;7.982;2024-03-08T16:39:42;10.17;;;4.80;;
47367;SDS011;34646;47.964;7.982;2024-03-08T16:45:42;10.10;;;4.43;;
47367;SDS011;34646;47.964;7.982;2024-03-08T16:51:43;7.90;;;4.25;;
47367;SDS011;34646;47.964;7.982;2024-03-08T16:57:45;6.13;;;3.80;;
47367;SDS011;34646;47.964;7.982;2024-03-08T17:03:47;9.38;;;3.67;;
47367;SDS011;34646;47.964;7.982;2024-03-08T17:09:48;6.78;;;3.72;;
47367;SDS011;34646;47.964;7.982;2024-03-08T17:15:49;6.80;;;4.03;;
47367;SDS011;34646;47.964;7.982;2024-03-08T17:21:50;8.60;;;3.83;;
47367;SDS011;34646;47.964;7.982;2024-03-08T17:27:53;6.97;;;3.55;;
47367;SDS011;34646;47.964;7.982;2024-03-08T17:33:55;8.32;;;3.83;;
47367;SDS011;34646;47.964;7.982;2024-03-08T17:39:56;8.38;;;3.40;;
47367;SDS011;34646;47.964;7.982;2024-03-08T17:45:58;8.13;;;3.70;;
47367;SDS011;34646;47.964;7.982;2024-03-08T17:51:59;6.90;;;3.72;;
47367;SDS011;34646;47.964;7.982;2024-03-08T17:58:04;6.47;;;3.47;;
47367;SDS011;34646;47.964;7.982;2024-03-08T18:04:06;10.82;;;3.80;;
47367;SDS011;34646;47.964;7.982;2024-03-08T18:10:07;8.15;;;3.70;;
47367;SDS011;34646;47.964;7.982;2024-03-08T18:16:18;11.90;;;4.30;;
47367;SDS011;34646;47.964;7.982;2024-03-08T18:22:19;7.87;;;3.57;;
47367;SDS011;34646;47.964;7.982;2024-03-08T18:28:19;13.67;;;3.77;;
47367;SDS011;34646;47.964;7.982;2024-03-08T18:34:21;15.10;;;3.88;;
47367;SDS011;34646;47.964;7.982;2024-03-08T18:40:22;24.77;;;4.63;;
47367;SDS011;34646;47.964;7.982;2024-03-08T18:46:26;45.38;;;6.43;;
47367;SDS011;34646;47.964;7.982;2024-03-08T18:52:27;42.92;;;5.70;;
47367;SDS011;34646;47.964;7.982;2024-03-08T18:58:28;61.78;;;6.85;;
47367;SDS011;34646;47.964;7.982;2024-03-08T19:04:32;66.80;;;6.90;;
47367;SDS011;34646;47.964;7.982;2024-03-08T19:10:33;47.60;;;5.30;;
47367;SDS011;34646;47.964;7.982;2024-03-08T19:22:40;48.00;;;5.15;;
47367;SDS011;34646;47.964;7.982;2024-03-08T19:28:42;35.08;;;6.43;;
47367;SDS011;34646;47.964;7.982;2024-03-08T19:34:44;43.22;;;6.00;;
47367;SDS011;34646;47.964;7.982;2024-03-08T19:40:45;39.13;;;4.82;;
47367;SDS011;34646;47.964;7.982;2024-03-08T19:46:46;41.28;;;5.65;;
47367;SDS011;34646;47.964;7.982;2024-03-08T19:52:47;33.10;;;5.72;;
47367;SDS011;34646;47.964;7.982;2024-03-08T19:58:50;34.40;;;5.53;;
47367;SDS011;34646;47.964;7.982;2024-03-08T20:04:55;33.65;;;5.07;;
47367;SDS011;34646;47.964;7.982;2024-03-08T20:10:56;27.27;;;4.77;;
47367;SDS011;34646;47.964;7.982;2024-03-08T20:17:02;28.00;;;4.53;;
47367;SDS011;34646;47.964;7.982;2024-03-08T20:23:04;32.60;;;5.90;;
47367;SDS011;34646;47.964;7.982;2024-03-08T20:29:07;38.55;;;5.47;;
47367;SDS011;34646;47.964;7.982;2024-03-08T20:35:08;25.93;;;4.50;;
47367;SDS011;34646;47.964;7.982;2024-03-08T20:41:10;24.63;;;4.00;;
47367;SDS011;34646;47.964;7.982;2024-03-08T20:47:13;22.55;;;5.30;;
47367;SDS011;34646;47.964;7.982;2024-03-08T20:53:16;18.92;;;5.20;;
47367;SDS011;34646;47.964;7.982;2024-03-08T20:59:17;14.77;;;3.97;;
47367;SDS011;34646;47.964;7.982;2024-03-08T21:05:19;21.95;;;4.38;;
47367;SDS011;34646;47.964;7.982;2024-03-08T21:11:22;14.13;;;3.90;;
47367;SDS011;34646;47.964;7.982;2024-03-08T21:17:28;16.55;;;4.43;;
47367;SDS011;34646;47.964;7.982;2024-03-08T21:23:29;18.17;;;4.55;;
47367;SDS011;34646;47.964;7.982;2024-03-08T21:29:32;20.00;;;4.80;;
47367;SDS011;34646;47.964;7.982;2024-03-08T21:41:35;21.50;;;4.38;;
47367;SDS011;34646;47.964;7.982;2024-03-08T21:47:36;15.95;;;3.67;;
47367;SDS011;34646;47.964;7.982;2024-03-08T21:53:38;19.05;;;4.30;;
47367;SDS011;34646;47.964;7.982;2024-03-08T21:59:40;11.18;;;3.72;;
47367;SDS011;34646;47.964;7.982;2024-03-08T22:05:42;17.88;;;4.03;;
47367;SDS011;34646;47.964;7.982;2024-03-08T22:11:44;12.35;;;3.45;;
47367;SDS011;34646;47.964;7.982;2024-03-08T22:17:46;18.05;;;3.47;;
47367;SDS011;34646;47.964;7.982;2024-03-08T22:23:49;13.95;;;3.55;;
47367;SDS011;34646;47.964;7.982;2024-03-08T22:29:51;14.32;;;3.78;;
47367;SDS011;34646;47.964;7.982;2024-03-08T22:35:52;12.20;;;3.58;;
47367;SDS011;34646;47.964;7.982;2024-03-08T22:47:55;14.48;;;4.95;;
47367;SDS011;34646;47.964;7.982;2024-03-08T22:53:56;7.07;;;3.38;;
47367;SDS011;34646;47.964;7.982;2024-03-08T22:59:58;9.45;;;3.33;;
47367;SDS011;34646;47.964;7.982;2024-03-08T23:05:59;11.73;;;3.80;;
47367;SDS011;34646;47.964;7.982;2024-03-08T23:11:59;11.27;;;3.93;;
47367;SDS011;34646;47.964;7.982;2024-03-08T23:18:00;10.93;;;3.67;;
47367;SDS011;34646;47.964;7.982;2024-03-08T23:24:01;9.97;;;3.57;;
47367;SDS011;34646;47.964;7.982;2024-03-08T23:30:02;6.85;;;3.00;;
47367;SDS011;34646;47.964;7.982;2024-03-08T23:36:03;8.85;;;3.55;;
47367;SDS011;34646;47.964;7.982;2024-03-08T23:42:09;8.10;;;3.47;;
47367;SDS011;34646;47.964;7.982;2024-03-08T23:48:11;9.05;;;3.40;;
47367;SDS011;34646;47.964;7.982;2024-03-08T23:54:15;9.60;;;2.97;;
